METAR stanice u blizini

 

LYBE - Beograd / Surčin, Srbija
Ažurirano: 17/06/2019 16:30
Partly Cloudy
Partly Cloudy
 Pravac vetra SZ
Vetar: SZ 17 km/h
Temperatura: 26°C
Tačka rose: 19°C
Vlažnost: 65%
Pritisak: 1015 hPa
Oblaci: Partly Cloudy
Vidljivost: 10 km
Cloud details: Partly Cloudy 1219 m
2019/06/17 14:30 LYBE 171430Z 32009KT 9999 SCT040 26/19 Q1015 NOSIG
LYBT - Beograd / Batajnica, Srbija
Ažurirano: 17/06/2019 16:30
Partly Cloudy
Partly Cloudy
 Pravac vetra Z
Vetar: Z 9 km/h
Temperatura: 27°C
Heat Index: 29°C
Tačka rose: 20°C
Vlažnost: 66%
Pritisak: 1015 hPa
Oblaci: Partly Cloudy
Vidljivost: 10 km
Cloud details: Partly Cloudy 914 m
2019/06/17 14:30 LYBT 171430Z 27005KT 210V330 9999 SCT030 27/20 Q1015 NOSIG
LYVR - Vršac, Srbija
Ažurirano: 17/06/2019 16:30
Few Clouds
Few Clouds
 Pravac vetra varies
Vetar: varies 7 km/h
Temperatura: 27°C
Heat Index: 28°C
Tačka rose: 18°C
Vlažnost: 58%
Pritisak: 1015 hPa
Oblaci: Few Clouds
Vidljivost: 10 km
Cloud details: Few Clouds 1006 m
2019/06/17 14:30 LYVR 171430Z VRB04KT 9999 FEW033 27/18 Q1015 NOSIG
 
LYKV - Lađevci, Srbija
Ažurirano: 17/06/2019 16:30
Mostly Cloudy
Mostly Cloudy
 Pravac vetra varies
Vetar: varies 9 km/h
Temperatura: 27°C
Heat Index: 28°C
Tačka rose: 18°C
Vlažnost: 58%
Pritisak: 1015 hPa
Oblaci: Mostly Cloudy
Vidljivost: 10 km
Cloud details: Mostly Cloudy 1311 m
2019/06/17 14:30 LYKV 171430Z VRB05KT 9999 BKN043 27/18 Q1015 NOSIG
LYNI - Niš, Srbija
Ažurirano: 17/06/2019 16:30
Few Clouds
Few Clouds
 Pravac vetra SZ
Vetar: SZ 17 km/h
Temperatura: 25°C
Tačka rose: 18°C
Vlažnost: 65%
Pritisak: 1015 hPa
Oblaci: Few Clouds
Vidljivost: 10 km
Cloud details: Few Clouds 1219 m
2019/06/17 14:30 LYNI 171430Z 32009KT 280V350 9999 FEW040 25/18 Q1015 NOSIG
BKPR - Priština, Srbija
Ažurirano: 17/06/2019 17:00
Light thunderstorm, Padavine, Pretežno oblačno
Light thunderstorm, Padavine, Pretežno oblačno
 Pravac vetra J
Vetar: J 30 km/h
Temperatura: 20°C
Tačka rose: 13°C
Vlažnost: 64%
Pritisak: 1018 hPa
Pregled: Light thunderstorm, Padavine
Oblaci: Mostly Cloudy
Vidljivost: 10 km
Cloud details: Partly Cloudy 914 m
Mostly Cloudy 1219 m
2019/06/17 15:00 BKPR 171500Z 19016KT 9999 -TSRA SCT030CB BKN040 20/13 Q1018 NOSIG
 
LHPP - Pecs / Pogany, Hungary
Ažurirano: 17/06/2019 16:19
Nearby showers, Delimično oblačno
Nearby showers, Delimično oblačno
 Pravac vetra SI
Vetar: SI 9 km/h
Temperatura: 26°C
Tačka rose: 17°C
Vlažnost: 58%
Pritisak: 1016 hPa
Pregled: Nearby Showers
Oblaci: Partly Cloudy
Vidljivost: 10 km
Cloud details: Partly Cloudy 1219 m
2019/06/17 14:19 LHPP 171419Z 05005KT 9999 VCSH SCT040CB 26/17 Q1016
LHUD - Szeged, Hungary
Ažurirano: 17/06/2019 15:45
NOT Current
Partly Cloudy
Partly Cloudy
 Pravac vetra SSZ
Vetar: SSZ 11 km/h
Temperatura: 27°C
Heat Index: 28°C
Tačka rose: 19°C
Vlažnost: 62%
Pritisak: 1016 hPa
Oblaci: Partly Cloudy
Vidljivost: 10 km
Cloud details: Partly Cloudy 1097 m
2019/06/17 13:45 LHUD 171345Z 34006KT 9999 SCT036 27/19 Q1016
LRTR - Timisoara, Romania
Ažurirano: 17/06/2019 16:30
Partly Cloudy
Partly Cloudy
 Pravac vetra SZ
Vetar: SZ 11 km/h
Temperatura: 27°C
Heat Index: 28°C
Tačka rose: 19°C
Vlažnost: 62%
Pritisak: 1015 hPa
Oblaci: Partly Cloudy
Vidljivost: 10 km
Cloud details: Partly Cloudy 1128 m
2019/06/17 14:30 LRTR 171430Z 32006KT 290V360 9999 SCT037 27/19 Q1015 NOSIG
 
LRCV - Craiova, Romania
Ažurirano: 17/06/2019 16:30
Few Clouds
Few Clouds
 Pravac vetra S
Vetar: S 7 km/h
Temperatura: 31°C
Tačka rose: 13°C
Vlažnost: 33%
Pritisak: 1013 hPa
Oblaci: Few Clouds
Vidljivost: 10 km
Cloud details: Few Clouds 1524 m
2019/06/17 14:30 LRCV 171430Z 35004KT 9999 FEW050TCU 31/13 Q1013
LBSF - Sofia, Bulgaria
Ažurirano: 17/06/2019 17:00
Mostly Cloudy
Mostly Cloudy
 Pravac vetra SSZ
Vetar: SSZ 17 km/h
Temperatura: 27°C
Heat Index: 27°C
Tačka rose: 14°C
Vlažnost: 45%
Pritisak: 1015 hPa
Oblaci: Mostly Cloudy
Vidljivost: 10 km
Cloud details: Few Clouds 1219 m
Mostly Cloudy 1433 m
2019/06/17 15:00 LBSF 171500Z 34009KT 290V040 9999 FEW040CB BKN047 27/14 Q1015 NOSIG
LWSK - Skoplje, Makedonija
Ažurirano: 17/06/2019 17:00
Thunderstorm rain, Oblačno
Thunderstorm rain, Oblačno
 Pravac vetra varies
Vetar: varies 4 km/h
Temperatura: 19°C
Tačka rose: 17°C
Vlažnost: 88%
Pritisak: 1017 hPa
Pregled: Thunderstorm Rain
Oblaci: Oblačno
Vidljivost: 10 km
Cloud details: Partly Cloudy 1219 m
Oblačno 1524 m
2019/06/17 15:00 LWSK 171500Z VRB02KT 9999 TSRA SCT040CB OVC050 19/17 Q1017 NOSIG
 
LYPG - Podgorica, Crna Gora
Ažurirano: 17/06/2019 16:30
Few Clouds
Few Clouds
 Pravac vetra Z
Vetar: Z 7 km/h
Temperatura: 34°C
Tačka rose: 13°C
Vlažnost: 28%
Pritisak: 1011 hPa
Oblaci: Few Clouds
Vidljivost: 10 km
Cloud details: Few Clouds 1006 m
Few Clouds 1219 m
2019/06/17 14:30 LYPG 171430Z 28004KT 220V330 9999 FEW033 FEW040TCU 34/13 Q1011 NOSIG
LQSA - Sarajevo, Bosna i Hercegovina
Ažurirano: 17/06/2019 16:30
Partly Cloudy
Partly Cloudy
 Pravac vetra SSZ
Vetar: SSZ 11 km/h
Temperatura: 25°C
Tačka rose: 17°C
Vlažnost: 61%
Pritisak: 1016 hPa
Oblaci: Partly Cloudy
Vidljivost: 10 km
Cloud details: Few Clouds 1128 m
Partly Cloudy 1524 m
2019/06/17 14:30 LQSA 171430Z 33006KT 290V360 9999 FEW037TCU SCT050 25/17 Q1016 TEMPO SHRA
LDOS - Osijek, Hrvatksa
Ažurirano: 17/06/2019 17:00
Few Clouds
Few Clouds
 Pravac vetra ZJZ
Vetar: ZJZ 9 km/h
Temperatura: 26°C
Tačka rose: 20°C
Vlažnost: 70%
Pritisak: 1015 hPa
Oblaci: Few Clouds
Vidljivost: 10 km
Cloud details: Few Clouds 1433 m
2019/06/17 15:00 LDOS 171500Z 25005KT 220V290 9999 FEW047 26/20 Q1015